Spring's Hourly Summary for Wednesday, July 11, 2018
Hour Temp
(f)
RH
(%)
Solar Rad.
(MJ/m2)
Rainfall
(in)
Wind
(mph)
7/11/2018 12:00 AM 82 72 0 0 3.56
7/11/2018 1:00 AM 80 76 0 0 3.07
7/11/2018 2:00 AM 79 79 0 0 2.31
7/11/2018 3:00 AM 78 82 0 0 1.12
7/11/2018 4:00 AM 78 85 0 0 0.48
7/11/2018 5:00 AM 77 88 0 0 0.97
7/11/2018 6:00 AM 76 91 0 0 0.05
7/11/2018 7:00 AM 76 92 0.01 0 0.23
7/11/2018 8:00 AM 77 89 0.21 0 0.04
7/11/2018 9:00 AM 80 80 0.9 0 1.35
7/11/2018 10:00 AM 83 69 1.53 0 3.23
7/11/2018 11:00 AM 85 63 1.93 0 3.27
7/11/2018 12:00 PM 86 58 2.11 0 2.24
7/11/2018 1:00 PM 89 51 3.37 0 2.11
7/11/2018 2:00 PM 90 45 3.24 0 3.71
7/11/2018 3:00 PM 91 44 2.61 0 2.85
7/11/2018 4:00 PM 92 43 2.3 0 2.6
7/11/2018 5:00 PM 91 43 0.7 0 2.87
7/11/2018 6:00 PM 92 42 1.09 0 1.88
7/11/2018 7:00 PM 90 47 0.73 0 3.24
7/11/2018 8:00 PM 87 60 0.17 0 1.46
7/11/2018 9:00 PM 86 60 0.05 0 0.47
7/11/2018 10:00 PM 85 66 0 0 1.52
7/11/2018 11:00 PM 84 71 0 0 3.61
Data Summary 83 66 20.95 0.00 2.01